Skip Navigation Links
NOAA logo - Click to go to the NOAA homepage
NOAA's National Weather Service
Alaska Aviation Weather Unit
  NWS logo - Click to go to the NWS homepage
Left Navbar Graphic     21 AKDT = 05 GMT

   
NOAA is celebrating 200 years of science, service, and stewardship. Visit the NOAA 200th celebration Web site to learn more.
USA.gov is the U.S. Government's official Web portal to all Federal, state and local government Web resources and services.
Facebook
NWS on Facebook

Important Change Regarding the AAWU Web Presence

 

Over the last several months, the AAWU has been working to navigate its webpages to a nationally supported server. Security, as well as other needs, have necessitated the change.  In the process, we have made an effort to enhance the functionality of our website, as well as some of our products. As of June 27, 2017, aawu.arh.noaa.gov will be discontinued. The new AAWU web address is weather.gov/aawu. It is now live and will run in-parallel with the old site until it is discontinued. Please send any feedback or questions regarding the new webpages to nws.ar.aawu.webauthors@noaa.gov.  Thank you for your patience during this time of transition.
AAWU Home :: Display TAF Add Bookmark
PADK 252316Z AUTO 24015G23KT 9SM BKN014 OVC023 08/02 A2964=

PADK 252336Z AUTO 23022G26KT 10SM SCT014 OVC021 09/02 A2963=

METAR PADK 252356Z AUTO 24024G29KT 10SM FEW017 SCT025 BKN029 10/03
     A2963=

PADK 260016Z AUTO 22021G26KT 10SM BKN031 OVC037 10/02 A2963=

PADK 260036Z AUTO 24023G29KT 10SM OVC031 10/02 A2963=

METAR PADK 260056Z AUTO 23022G25KT 10SM OVC031 10/02 A2964=

PADK 260116Z AUTO 24020G27KT 10SM OVC031 09/02 A2964=

PADK 260136Z AUTO 23020G28KT 10SM OVC026 09/02 A2963=

METAR PADK 260156Z AUTO 23022G27KT 10SM BKN026 OVC030 09/02 A2963=

PADK 260216Z AUTO 23024G30KT 10SM FEW023 BKN030 OVC037 09/02
     A2962=

PADK 260236Z AUTO 23026KT 10SM FEW022 OVC033 10/02 A2962=

METAR PADK 260256Z AUTO 25019G27KT 10SM SCT014 BKN022 OVC033 09/02
     A2962=

PADK 260316Z AUTO 23023G27KT 10SM SCT014 BKN025 OVC031 09/02
     A2962=

PADK 260336Z AUTO 23023G26KT 10SM FEW012 OVC020 08/02 A2961=

METAR PADK 260356Z AUTO 23020G23KT 10SM BKN014 OVC020 08/02 A2961=

PADK 260416Z AUTO 23023G27KT 10SM SCT016 BKN023 OVC034 09/02
     A2961=

PADK 260436Z AUTO 23019G27KT 10SM BKN026 OVC033 08/02 A2961=

METAR PADK 260456Z AUTO 23019G25KT 10SM SCT014 OVC022 08/02 A2960=

PADK 260516Z AUTO 23018KT 8SM BKN012 OVC020 08/02 A2960=


NOAA's National Weather Service
Alaska Aviation Weather Unit
6930 Sand Lake Road
Anchorage, AK 99502-1845
Disclaimer
Credits
Glossary
Privacy Policy
About Us
Career Opportunities
Contact AAWU Internet Services Site last modified: April, 17th 2012